Hovedside
METAR-TAF:

METAR-TAF

Lufthavner :

Vitebsk, Hviterussland

breddegrad: 55-10N, lengdegrad: 030-13E, høyde over havet: 176 m

Gjeldene værobservasjon

Denne rapporten ble laget for 35 minutter siden, klokken 10:00 UTC
Vind 14 kt fra Sørvest med vindkast opp mot 19 kt
Temperatur 19°C
Luftfuktighet 73%
Trykk 1005 hPa
Sikt: 9000 m
Brutte skyer i en høyde av 1800 ft, Bygeskyer.

METAR: UMII 251000Z 22007G10MPS 9000 BKN018CB 19/14 Q1005 TEMPO 2000 SHRA BKN005

Tid: 13:35 (10:35 UTC)


TAF: fraværende

Værobservasjoner og værvarsel for over 4000 flyplasser (METAR- og TAF-rapporter).

Tilgjengelige stasjoner er representert av de røde og gule prikkene på kartet.

Hold musepekeren over prikken for å se navnet på stasjonen.

Klikk så for å se værobservasjoner og -varsler.

For å forandre kartet kan du klikke på den grønne knappen med svart kryss for å zoome inn, på den grønne knappen med strek for å zoome ut, eller på de grønne pilene for å se tilstøtende kart.


METAR-TAF: